Time;durP1;ratioP1;P1;durP2;ratioP2;P2;SDS_P1;SDS_P2;PMS_P1;PMS_P2;Temp;Humidity;BMP_temperature;BMP_pressure;BME280_temperature;BME280_humidity;BME280_pressure;Samples;Min_cycle;Max_cycle;Signal;HPM_P1;HPM_P2
2024/03/30 07:19:01;;;;;;;4.25;2.62;;;16.90;84.40;;;;;;1925733;74;28409;-50
2024/03/30 07:21:30;;;;;;;5.67;2.40;;;16.80;84.50;;;;;;1919538;74;21491;-51
2024/03/30 07:23:59;;;;;;;5.87;2.22;;;16.70;84.70;;;;;;1919628;73;21068;-51
2024/03/30 07:26:28;;;;;;;8.25;2.45;;;16.70;84.90;;;;;;1919490;75;21007;-51
2024/03/30 07:28:57;;;;;;;4.83;2.30;;;16.70;84.00;;;;;;1919597;75;21014;-49
2024/03/30 07:31:26;;;;;;;3.12;1.77;;;;;;;;;;1919513;75;21034;-49
2024/03/30 07:33:54;;;;;;;2.22;1.70;;;;;;;;;;1919565;75;21027;-50
2024/03/30 07:36:23;;;;;;;6.00;2.05;;;;;;;;;;1919588;75;21092;-50
2024/03/30 07:38:51;;;;;;;2.02;1.50;;;;;;;;;;1919577;75;21113;-50
2024/03/30 07:41:20;;;;;;;3.30;1.60;;;;;;;;;;1919706;75;20983;-50
2024/03/30 07:43:48;;;;;;;1.67;1.47;;;;;;;;;;1919547;75;21096;-49
2024/03/30 07:46:17;;;;;;;7.35;1.95;;;;;;;;;;1919519;75;21101;-49
2024/03/30 07:48:45;;;;;;;3.02;1.75;;;;;;;;;;1919521;75;21031;-50
2024/03/30 07:51:14;;;;;;;2.20;1.35;;;;;;;;;;1919684;75;21080;-49
2024/03/30 07:53:43;;;;;;;2.75;1.25;;;;;;;;;;1919542;75;21050;-49
2024/03/30 07:56:12;;;;;;;14.38;3.15;;;;;;;;;;1919675;75;21006;-51
2024/03/30 07:58:40;;;;;;;10.18;2.60;;;;;;;;;;1919483;75;21078;-49
2024/03/30 08:01:09;;;;;;;1.72;1.55;;;;;;;;;;1919657;75;21031;-49
2024/03/30 08:03:37;;;;;;;8.93;1.80;;;;;;;;;;1919602;75;21018;-50
2024/03/30 08:06:06;;;;;;;2.58;1.20;;;;;;;;;;1919574;75;21096;-49
2024/03/30 08:08:35;;;;;;;1.80;1.20;;;;;;;;;;1919557;75;21022;-50
2024/03/30 08:11:04;;;;;;;3.27;1.75;;;;;;;;;;1919578;75;21038;-50
2024/03/30 08:13:33;;;;;;;1.45;1.35;;;;;;;;;;1919561;75;21039;-53
2024/03/30 08:16:01;;;;;;;3.33;1.42;;;;;;;;;;1919528;75;21046;-51
2024/03/30 08:18:30;;;;;;;1.62;1.27;;;;;;;;;;1928910;74;21026;-50
2024/03/30 08:21:05;;;;;;;2.35;1.40;;;;;;;;;;1935338;74;21085;-48
2024/03/30 08:23:34;;;;;;;3.02;2.10;;;;;;;;;;1935301;74;20986;-50
2024/03/30 08:26:02;;;;;;;4.72;1.82;;;;;;;;;;1935329;74;21046;-50
2024/03/30 08:28:31;;;;;;;4.60;2.65;;;;;;;;;;1935211;74;21146;-50
2024/03/30 08:31:00;;;;;;;2.98;1.40;;;;;;;;;;1935305;74;21037;-52
2024/03/30 08:33:29;;;;;;;4.87;1.52;;;;;;;;;;1935248;74;21033;-49
2024/03/30 08:35:58;;;;;;;2.50;1.17;;;;;;;;;;1935415;74;21018;-50
2024/03/30 08:38:27;;;;;;;1.47;1.20;;;;;;;;;;1935237;74;21155;-51
2024/03/30 08:40:56;;;;;;;5.50;1.62;;;;;;;;;;1935300;74;21018;-51
2024/03/30 08:43:29;;;;;;;6.90;2.95;;;;;;;;;;1935307;74;21038;-50
2024/03/30 08:45:55;;;;;;;4.58;2.17;;;;;;;;;;1933623;74;21487;-49
2024/03/30 08:48:24;;;;;;;4.35;2.55;;;;;;;;;;1935332;74;21042;-49
2024/03/30 08:50:52;;;;;;;4.40;1.45;;;;;;;;;;1935375;74;21016;-53
2024/03/30 08:53:21;;;;;;;4.90;2.05;;;;;;;;;;1935251;74;21077;-51
2024/03/30 08:55:51;;;;;;;8.88;2.08;;;;;;;;;;1935288;73;21018;-49
2024/03/30 08:58:20;;;;;;;2.52;1.60;;;;;;;;;;1934736;74;21088;-51
2024/03/30 09:00:48;;;;;;;2.65;1.42;;;;;;;;;;1935358;74;21084;-50
2024/03/30 09:03:17;;;;;;;2.87;1.98;;;;;;;;;;1935238;74;21093;-49
2024/03/30 09:05:46;;;;;;;3.45;1.92;;;;;;;;;;1935306;74;21011;-50
2024/03/30 09:08:14;;;;;;;12.05;2.05;;;;;;;;;;1935234;74;21026;-48
2024/03/30 09:10:43;;;;;;;3.67;1.70;;;;;;;;;;1935247;74;21030;-48
2024/03/30 09:13:12;;;;;;;4.47;1.65;;;;;;;;;;1935369;74;21002;-52
2024/03/30 09:15:40;;;;;;;7.85;3.20;;;;;;;;;;1935246;74;21002;-49
2024/03/30 09:18:10;;;;;;;4.85;2.22;;;;;;;;;;1935208;73;21026;-49
2024/03/30 09:20:38;;;;;;;9.38;2.90;;;;;;;;;;1935215;74;21000;-50
2024/03/30 09:23:07;;;;;;;2.95;2.20;;;;;;;;;;1935293;74;21010;-48
2024/03/30 09:25:36;;;;;;;2.65;1.50;;;;;;;;;;1935213;74;21021;-50
2024/03/30 09:28:05;;;;;;;6.25;1.65;;;;;;;;;;1935243;74;21034;-49
2024/03/30 09:30:33;;;;;;;4.40;1.75;;;;;;;;;;1935206;74;21206;-50
2024/03/30 09:33:02;;;;;;;4.25;1.80;;;;;;;;;;1935281;74;21030;-49
2024/03/30 09:35:30;;;;;;;2.98;2.35;;;;;;;;;;1935437;74;21022;-51
2024/03/30 09:37:59;;;;;;;11.63;3.08;;;;;;;;;;1935171;74;21092;-49
2024/03/30 09:40:28;;;;;;;2.77;1.75;;;;;;;;;;1935324;74;21088;-51
2024/03/30 09:42:58;;;;;;;1.77;1.67;;;;;;;;;;1935200;74;21034;-48
2024/03/30 09:45:27;;;;;;;3.70;1.90;;;;;;;;;;1935470;74;21100;-50
2024/03/30 09:48:01;;;;;;;11.15;2.15;;;;;;;;;;1934250;74;21075;-50
2024/03/30 09:50:30;;;;;;;9.60;3.42;;;;;;;;;;1935362;74;21018;-49
2024/03/30 09:53:00;;;;;;;5.33;1.95;;;;;;;;;;1935253;74;21030;-48
2024/03/30 09:55:29;;;;;;;1.30;1.20;;;;;;;;;;1935243;74;21037;-49
2024/03/30 09:57:58;;;;;;;4.10;1.25;;;;;;;;;;1935252;74;21080;-51
2024/03/30 10:00:28;;;;;;;5.17;1.92;;;;;;;;;;1935456;74;21030;-50
2024/03/30 10:02:57;;;;;;;14.33;2.33;;;;;;;;;;1935333;73;21006;-50
2024/03/30 10:05:25;;;;;;;9.23;3.62;;;;;;;;;;1935259;74;21014;-48
2024/03/30 10:08:01;;;;;;;8.70;1.57;;;;;;;;;;1935196;74;21030;-50
2024/03/30 10:10:30;;;;;;;11.85;2.47;;;;;;;;;;1935319;74;21076;-49
2024/03/30 10:13:00;;;;;;;8.83;1.90;;;;;;;;;;1935259;74;21072;-48
2024/03/30 10:15:50;;;;;;;11.78;2.90;;;;;;;;;;1935175;73;21007;-50
2024/03/30 10:18:19;;;;;;;12.93;2.87;;;;;;;;;;1935193;73;21070;-49
2024/03/30 10:20:47;;;;;;;7.55;2.70;;;;;;;;;;1935294;74;21041;-50
2024/03/30 10:23:17;;;;;;;7.65;1.60;;;;;;;;;;1935298;74;21068;-52
2024/03/30 10:25:53;;;;;;;4.65;1.90;;;;;;;;;;1935259;74;21463;-53
2024/03/30 10:28:22;;;;;;;16.32;7.70;;;;;;;;;;1934388;74;21037;-52
2024/03/30 10:30:50;;;;;;;9.13;2.67;;;;;;;;;;1935390;74;21038;-54
2024/03/30 10:33:21;;;;;;;2.77;1.40;;;;;;;;;;1935264;73;21042;-51
2024/03/30 10:35:50;;;;;;;4.67;1.55;;;;;;;;;;1935231;74;21049;-54
2024/03/30 10:38:19;;;;;;;2.47;1.25;;;;;;;;;;1935335;74;21017;-56
2024/03/30 10:40:48;;;;;;;3.85;1.70;;;;;;;;;;1935294;74;21034;-53
2024/03/30 10:43:17;;;;;;;4.22;1.60;;;;;;;;;;1935268;74;21085;-55
2024/03/30 10:45:46;;;;;;;8.05;1.40;;;;;;;;;;1935358;74;21030;-56
2024/03/30 10:48:14;;;;;;;2.70;1.50;;;;;;;;;;1935177;74;21026;-54
2024/03/30 10:50:43;;;;;;;3.22;1.30;;;;;;;;;;1935347;74;20982;-55
2024/03/30 10:53:13;;;;;;;6.22;1.50;;;;;;;;;;1935281;74;21077;-55
2024/03/30 10:55:42;;;;;;;2.98;1.25;;;;;;;;;;1935286;73;21134;-53
2024/03/30 10:58:11;;;;;;;3.05;1.98;;;;;;;;;;1935329;74;20994;-48
2024/03/30 11:00:41;;;;;;;3.98;1.47;;;;;;;;;;1935303;74;21072;-49
2024/03/30 11:03:11;;;;;;;2.60;1.70;;;;;;;;;;1935263;74;21095;-48
2024/03/30 11:05:40;;;;;;;6.92;2.05;;;;;;;;;;1935263;74;21071;-49
2024/03/30 11:08:11;;;;;;;4.97;1.50;;;;;;;;;;1935230;74;21468;-49
2024/03/30 11:10:40;;;;;;;1.42;1.02;;;;;;;;;;1935255;74;21009;-48
2024/03/30 11:13:09;;;;;;;3.00;1.90;;;;;;;;;;1935301;74;21092;-49
2024/03/30 11:15:39;;;;;;;10.90;2.20;;;;;;;;;;1935281;74;21038;-49
2024/03/30 11:18:11;;;;;;;8.90;3.25;;;;;;;;;;1935184;74;21088;-49
2024/03/30 11:20:40;;;;;;;5.85;2.45;;;;;;;;;;1920712;73;21047;-52
2024/03/30 11:23:10;;;;;;;1.72;1.50;;;;;;;;;;1917819;74;21090;-51
2024/03/30 11:25:40;;;;;;;18.25;6.28;;;;;;;;;;1919099;75;21081;-50
2024/03/30 11:28:09;;;;;;;10.93;3.83;;;;;;;;;;1918650;74;21011;-48
2024/03/30 11:30:51;;;;;;;6.20;1.98;;;;;;;;;;1917424;74;21080;-49
2024/03/30 11:33:24;;;;;;;2.40;1.40;;;;;;;;;;1918712;73;21014;-50
2024/03/30 11:35:57;;;;;;;6.37;2.62;;;;;;;;;;1918942;75;21042;-47
2024/03/30 11:38:27;;;;;;;4.47;1.57;;;;;;;;;;1918806;75;21010;-49
2024/03/30 11:41:00;;;;;;;1.67;1.25;;;;;;;;;;1918754;75;21106;-48
2024/03/30 11:43:46;;;;;;;6.03;2.02;;;;;;;;;;1918489;74;21047;-52
2024/03/30 11:46:15;;;;;;;3.67;2.50;;;;;;;;;;1918750;75;21038;-50
2024/03/30 11:48:44;;;;;;;5.70;1.70;;;;;;;;;;1918861;75;21100;-50
2024/03/30 11:51:14;;;;;;;1.22;1.10;;;;;;;;;;1918728;75;21144;-49
2024/03/30 11:53:43;;;;;;;9.25;3.35;;;;;;;;;;1918187;75;21062;-48
2024/03/30 11:56:12;;;;;;;3.37;2.00;;;;;;;;;;1918856;75;21104;-50
2024/03/30 11:58:41;;;;;;;1.75;1.30;;;;;;;;;;1918986;75;21023;-51
2024/03/30 12:01:12;;;;;;;3.60;2.42;;;;;;;;;;1918922;75;21031;-50
2024/03/30 12:03:41;;;;;;;1.98;1.40;;;;;;;;;;1918923;75;21144;-48
2024/03/30 12:06:11;;;;;;;13.65;4.50;;;;;;;;;;1919100;75;21007;-48
2024/03/30 12:08:41;;;;;;;19.57;5.75;;;;;;;;;;1917771;74;21039;-48
2024/03/30 12:11:10;;;;;;;4.15;3.55;;;;;;;;;;1918902;75;21492;-51
2024/03/30 12:13:39;;;;;;;6.33;2.27;;;;;;;;;;1919024;75;21030;-48
2024/03/30 12:16:07;;;;;;;1.52;0.98;;;;;;;;;;1918925;75;21026;-49
2024/03/30 12:18:36;;;;;;;6.08;2.20;;;;;;;;;;1918860;75;21022;-49
2024/03/30 12:21:05;;;;;;;2.35;1.17;;;;;;;;;;1918807;74;21085;-49
2024/03/30 12:23:34;;;;;;;4.25;1.70;;;;;;;;;;1918895;75;21186;-51
2024/03/30 12:26:04;;;;;;;2.70;1.70;;;;;;;;;;1918976;75;21163;-51
2024/03/30 12:28:33;;;;;;;6.87;2.10;;;;;;;;;;1918971;75;21324;-51
2024/03/30 12:31:03;;;;;;;5.20;1.75;;;;;;;;;;1918873;75;21034;-50
2024/03/30 12:33:31;;;;;;;3.50;1.60;;;;;;;;;;1918928;75;21014;-50
2024/03/30 12:36:00;;;;;;;2.92;1.40;;;;;;;;;;1918836;75;21092;-48
2024/03/30 12:38:28;;;;;;;4.60;3.10;;;;;;;;;;1918881;75;21003;-48
2024/03/30 12:40:57;;;;;;;10.63;3.00;;;;;;;;;;1918921;75;20979;-49
2024/03/30 12:43:25;;;;;;;3.12;1.70;;;;;;;;;;1918924;75;21010;-50
2024/03/30 12:45:57;;;;;;;11.88;2.42;;;;;;;;;;1918912;75;21023;-51
2024/03/30 12:48:25;;;;;;;6.08;3.02;;;;;;;;;;1918858;74;21566;-51
2024/03/30 12:50:53;;;;;;;10.75;3.05;;;;;;;;;;1918933;75;21002;-53
2024/03/30 12:53:22;;;;;;;4.35;1.50;;;;;;;;;;1918840;75;21100;-49
2024/03/30 12:55:51;;;;;;;5.30;1.65;;;;;;;;;;1918880;75;21281;-49
2024/03/30 12:58:19;;;;;;;4.00;1.82;;;;;;;;;;1919116;75;21527;-50
2024/03/30 13:00:48;;;;;;;4.95;1.50;;;;;;;;;;1918991;75;21097;-51
2024/03/30 13:03:17;;;;;;;3.17;1.40;;;;;;;;;;1919028;75;21002;-48
2024/03/30 13:05:48;;;;;;;2.80;1.57;;;;;;;;;;1919051;75;21072;-48
2024/03/30 13:08:15;;;;;;;8.45;2.55;;;;;;;;;;1918877;75;21520;-49
2024/03/30 13:10:47;;;;;;;20.50;4.28;;;;;;;;;;1918965;75;21102;-50
2024/03/30 13:13:14;;;;;;;5.92;2.05;;;;;;;;;;1918797;74;21476;-53
2024/03/30 13:15:43;;;;;;;28.77;4.50;;;;;;;;;;1918910;75;21094;-49
2024/03/30 13:18:12;;;;;;;12.13;3.00;;;;;;;;;;1919086;75;21014;-48
2024/03/30 13:20:41;;;;;;;2.92;1.72;;;;;;;;;;1927330;74;21014;-49
2024/03/30 13:23:10;;;;;;;12.23;3.67;;;;;;;;;;1935409;74;21096;-47
2024/03/30 13:25:39;;;;;;;13.90;4.72;;;;;;;;;;1935300;74;21081;-48
2024/03/30 13:28:08;;;;;;;7.10;3.02;;;;;;;;;;1935208;74;20998;-48
2024/03/30 13:30:38;;;;;;;12.68;4.15;;;;;;;;;;1935318;74;21018;-49
2024/03/30 13:33:06;;;;;;;5.55;2.62;;;;;;;;;;1935264;74;21081;-53
2024/03/30 13:35:38;;;;;;;5.22;1.98;;;;;;;;;;1935362;74;21084;-51
2024/03/30 13:38:06;;;;;;;15.50;2.87;;;;;;;;;;1935213;74;21475;-52
2024/03/30 13:40:34;;;;;;;11.75;4.30;;;;;;;;;;1935215;74;21026;-48
2024/03/30 13:43:03;;;;;;;15.05;3.65;;;;;;;;;;1935272;74;21050;-49
2024/03/30 13:45:33;;;;;;;9.48;1.90;;;;;;;;;;1935288;74;21021;-50
2024/03/30 13:48:02;;;;;;;5.90;1.90;;;;;;;;;;1935280;74;21073;-50
2024/03/30 13:50:30;;;;;;;11.08;2.40;;;;;;;;;;1935332;74;21079;-49
2024/03/30 13:52:59;;;;;;;114.70;12.88;;;;;;;;;;1935295;74;21108;-52
2024/03/30 13:55:28;;;;;;;7.40;1.60;;;;;;;;;;1935290;74;21037;-51
2024/03/30 13:57:57;;;;;;;4.10;1.40;;;;;;;;;;1935465;74;21010;-50
2024/03/30 14:00:27;;;;;;;4.17;1.60;;;;;;;;;;1935180;74;21014;-53
2024/03/30 14:02:55;;;;;;;2.12;1.40;;;;;;;;;;1935309;74;20988;-52
2024/03/30 14:05:24;;;;;;;6.50;1.52;;;;;;;;;;1935273;74;21038;-54
2024/03/30 14:07:53;;;;;;;6.58;1.85;;;;;;;;;;1935384;73;21034;-52
2024/03/30 14:10:21;;;;;;;10.78;2.05;;;;;;;;;;1935251;74;21014;-53
2024/03/30 14:12:50;;;;;;;4.67;1.87;;;;;;;;;;1935292;74;21154;-55
2024/03/30 14:15:18;;;;;;;1.98;1.40;;;;;;;;;;1935260;74;21120;-51
2024/03/30 14:17:48;;;;;;;2.58;1.57;;;;;;;;;;1935255;74;21014;-49
2024/03/30 14:20:17;;;;;;;2.98;1.37;;;;;;;;;;1935158;74;21629;-50
2024/03/30 14:22:46;;;;;;;1.92;1.80;;;;;;;;;;1935337;74;21014;-49
2024/03/30 14:25:15;;;;;;;2.75;1.50;;;;;;;;;;1935305;74;21092;-49
2024/03/30 14:27:43;;;;;;;2.83;1.65;;;;;;;;;;1935213;74;21066;-49
2024/03/30 14:30:12;;;;;;;21.82;2.27;;;;;;;;;;1935397;74;21002;-52
2024/03/30 14:32:41;;;;;;;10.18;5.80;;;;;;;;;;1935268;74;20998;-54
2024/03/30 14:35:09;;;;;;;12.65;6.45;;;;;;;;;;1935245;73;21100;-54
2024/03/30 14:37:38;;;;;;;13.28;6.60;;;;;;;;;;1935397;74;20994;-54
2024/03/30 14:40:07;;;;;;;9.10;2.95;;;;;;;;;;1935178;74;21098;-54
2024/03/30 14:42:36;;;;;;;3.60;1.90;;;;;;;;;;1935292;74;21088;-54
2024/03/30 14:45:05;;;;;;;2.75;2.10;;;;;;;;;;1935241;74;21094;-56
2024/03/30 14:47:33;;;;;;;5.20;1.98;;;;;;;;;;1935216;73;21034;-51
2024/03/30 14:50:02;;;;;;;2.45;2.00;;;;;;;;;;1935294;74;21068;-54
2024/03/30 14:52:32;;;;;;;4.28;2.00;;;;;;;;;;1935408;74;21104;-54
2024/03/30 14:55:01;;;;;;;2.65;1.80;;;;;;;;;;1935445;73;21013;-54
2024/03/30 14:57:29;;;;;;;5.62;2.00;;;;;;;;;;1935351;74;21088;-53
2024/03/30 14:59:58;;;;;;;2.20;1.75;;;;;;;;;;1935367;74;21101;-55
2024/03/30 15:02:27;;;;;;;3.05;1.70;;;;;;;;;;1935276;74;21029;-52
2024/03/30 15:04:56;;;;;;;2.05;1.85;;;;;;;;;;1935246;74;21034;-54
2024/03/30 15:07:26;;;;;;;3.55;2.00;;;;;;;;;;1935309;74;21099;-54
2024/03/30 15:09:55;;;;;;;20.82;3.10;;;;;;;;;;1935258;74;21449;-53
2024/03/30 15:12:23;;;;;;;2.47;1.70;;;;;;;;;;1935171;74;21139;-51
2024/03/30 15:14:52;;;;;;;3.05;1.70;;;;;;;;;;1935249;74;21135;-52
2024/03/30 15:17:20;;;;;;;3.15;1.65;;;;;;;;;;1935174;74;21018;-53
2024/03/30 15:19:50;;;;;;;7.55;1.98;;;;;;;;;;1935103;74;21124;-54
2024/03/30 15:22:18;;;;;;;4.22;1.82;;;;;;;;;;1922177;74;21046;-54
2024/03/30 15:24:47;;;;;;;2.85;1.62;;;;;;;;;;1918671;75;21100;-54
2024/03/30 15:27:16;;;;;;;2.77;1.75;;;;;;;;;;1918699;75;21035;-55
2024/03/30 15:32:31;;;;;;;49.63;5.12;;;;;;;;;;1918898;75;21023;-55
2024/03/30 15:35:00;;;;;;;2.70;2.00;;;;;;;;;;1918877;75;21047;-54
2024/03/30 15:37:28;;;;;;;11.95;2.70;;;;;;;;;;1918912;75;21003;-54
2024/03/30 15:39:57;;;;;;;10.88;2.65;;;;;;;;;;1918892;75;21031;-54
2024/03/30 15:42:29;;;;;;;11.28;2.35;;;;;;;;;;1918933;75;20999;-55
2024/03/30 15:44:55;;;;;;;3.17;1.90;;;;;;;;;;1918702;74;21472;-56
2024/03/30 15:47:24;;;;;;;3.70;1.90;;;;;;;;;;1919016;75;21085;-56
2024/03/30 15:49:52;;;;;;;2.58;1.80;;;;;;;;;;1918885;74;21030;-55
2024/03/30 15:52:21;;;;;;;3.83;1.92;;;;;;;;;;1918957;75;20994;-53
2024/03/30 15:54:50;;;;;;;5.00;2.10;;;;;;;;;;1919016;75;20998;-53
2024/03/30 15:57:19;;;;;;;7.30;2.35;;;;;;;;;;1918887;75;21046;-54
2024/03/30 15:59:51;;;;;;;5.05;2.20;;;;;;;;;;1918860;75;21152;-55
2024/03/30 16:02:20;;;;;;;4.70;2.10;;;;;;;;;;1918868;75;21023;-54
2024/03/30 16:04:50;;;;;;;8.90;2.33;;;;;;;;;;1918919;75;21003;-54
2024/03/30 16:07:18;;;;;;;9.15;2.10;;;;;;;;;;1917932;74;21105;-55
2024/03/30 16:09:47;;;;;;;7.72;2.33;;;;;;;;;;1918870;75;21104;-54
2024/03/30 16:12:16;;;;;;;7.92;2.40;;;;;;;;;;1918810;75;21088;-50
2024/03/30 16:14:44;;;;;;;5.03;2.40;;;;;;;;;;1918795;75;21042;-51
2024/03/30 16:17:13;;;;;;;6.70;2.37;;;;;;;;;;1918950;75;21093;-55
2024/03/30 16:19:42;;;;;;;3.42;2.15;;;;;;;;;;1918984;75;20978;-54
2024/03/30 16:22:10;;;;;;;6.17;2.25;;;;;;;;;;1927364;74;21046;-50
2024/03/30 16:24:39;;;;;;;17.23;5.62;;;;;;;;;;1935247;74;21034;-51
2024/03/30 16:27:08;;;;;;;9.03;4.22;;;;;;;;;;1935392;74;21014;-50
2024/03/30 16:29:37;;;;;;;12.30;4.20;;;;;;;;;;1935351;74;21183;-50
2024/03/30 16:32:06;;;;;;;22.45;4.75;;;;;;;;;;1935434;74;21038;-49
2024/03/30 16:34:36;;;;;;;20.17;5.53;;;;;;;;;;1935355;74;21014;-51
2024/03/30 16:37:05;;;;;;;27.95;6.58;;;;;;;;;;1935325;74;20998;-50
2024/03/30 16:39:33;;;;;;;10.90;4.20;;;;;;;;;;1935388;74;20995;-49
2024/03/30 16:42:02;;;;;;;7.62;3.58;;;;;;;;;;1935387;74;21155;-48
2024/03/30 16:44:31;;;;;;;14.98;6.37;;;;;;;;;;1935430;74;21082;-48
2024/03/30 16:47:02;;;;;;;16.67;6.10;;;;;;;;;;1935254;74;21035;-48
2024/03/30 16:49:31;;;;;;;35.43;9.45;;;;;;;;;;1935458;74;21026;-50
2024/03/30 16:52:00;;;;;;;26.05;9.70;;;;;;;;;;1935440;74;20978;-48
2024/03/30 16:54:29;;;;;;;36.95;9.03;;;;;;;;;;1935194;73;21030;-48
2024/03/30 16:56:57;;;;;;;26.07;6.60;;;;;;;;;;1935269;74;21018;-49
2024/03/30 16:59:26;;;;;;;11.95;4.53;;;;;;;;;;1935296;74;21084;-50
2024/03/30 17:01:55;;;;;;;5.90;2.83;;;;;;;;;;1935397;74;21295;-50
2024/03/30 17:04:23;;;;;;;12.18;4.20;;;;;;;;;;1935443;74;21002;-49
2024/03/30 17:06:52;;;;;;;26.50;6.33;;;;;;;;;;1935369;74;21014;-52
2024/03/30 17:09:21;;;;;;;32.17;6.65;;;;;;;;;;1935360;74;21078;-51
2024/03/30 17:11:49;;;;;;;32.45;7.42;;;;;;;;;;1935491;74;21010;-49
2024/03/30 17:14:18;;;;;;;22.58;8.10;;;;;;;;;;1935471;74;21026;-49
2024/03/30 17:16:47;;;;;;;34.18;7.53;;;;;;;;;;1935409;74;20994;-48
2024/03/30 17:19:15;;;;;;;51.45;9.80;;;;;;;;;;1935427;74;21014;-49
2024/03/30 17:21:44;;;;;;;58.65;12.82;;;;;;;;;;1933098;74;21144;-49
2024/03/30 17:24:13;;;;;;;44.60;9.68;;;;;;;;;;1918939;75;21014;-51
2024/03/30 17:26:41;;;;;;;37.20;11.80;;;;;;;;;;1918847;75;21031;-52
2024/03/30 17:29:10;;;;;;;31.62;8.85;;;;;;;;;;1919018;75;21013;-51
2024/03/30 17:31:39;;;;;;;23.45;7.83;;;;;;;;;;1919054;75;21088;-50
2024/03/30 17:34:07;;;;;;;25.82;12.15;;;;;;;;;;1918974;75;21050;-51
2024/03/30 17:36:36;;;;;;;55.25;20.97;;;;;;;;;;1919001;75;21034;-53
2024/03/30 17:39:05;;;;;;;51.33;16.37;;;;;;;;;;1919110;75;21046;-52
2024/03/30 17:41:33;;;;;;;83.17;21.02;;;;;;;;;;1918953;75;21088;-50
2024/03/30 17:44:02;;;;;;;104.43;24.57;;;;;;;;;;1918990;75;21026;-53
2024/03/30 17:46:31;;;;;;;37.38;13.28;;;;;;;;;;1919015;75;21034;-49
2024/03/30 17:48:59;;;;;;;26.90;10.93;;;;;;;;;;1918865;75;21019;-52
2024/03/30 17:51:28;;;;;;;38.88;14.18;;;;;;;;;;1918829;75;21157;-50
2024/03/30 17:53:57;;;;;;;35.85;15.95;;;;;;;;;;1918923;75;21023;-50
2024/03/30 17:56:26;;;;;;;34.92;13.80;;;;;;;;;;1918965;75;21100;-50
2024/03/30 17:58:54;;;;;;;30.02;13.08;;;;;;;;;;1918901;75;21308;-51
2024/03/30 18:01:24;;;;;;;33.90;14.13;;;;;;;;;;1918835;75;21096;-52
2024/03/30 18:03:53;;;;;;;25.95;12.45;;;;;;;;;;1918906;75;21026;-52
2024/03/30 18:06:27;;;;;;;27.80;10.82;;;;;;;;;;1918874;75;21087;-53
2024/03/30 18:08:56;;;;;;;28.23;12.03;;;;;;;;;;1918966;75;21069;-53
2024/03/30 18:11:25;;;;;;;21.70;10.38;;;;;;;;;;1918967;75;21082;-53
2024/03/30 18:13:54;;;;;;;17.02;9.00;;;;;;;;;;1918973;75;21092;-53
2024/03/30 18:16:22;;;;;;;21.20;10.32;;;;;;;;;;1918941;75;21088;-52
2024/03/30 18:18:51;;;;;;;29.95;14.30;;;;;;;;;;1919018;75;21090;-53
2024/03/30 18:21:20;;;;;;;31.17;15.75;;;;;;;;;;1918941;75;21089;-53
2024/03/30 18:23:48;;;;;;;42.93;18.27;;;;;;;;;;1932015;74;21104;-51
2024/03/30 18:26:23;;;;;;;48.95;17.05;;;;;;;;;;1935346;74;21030;-50
2024/03/30 18:28:49;;;;;;;58.75;22.25;;;;;;;;;;1934060;74;21553;-53
2024/03/30 18:31:18;;;;;;;54.42;21.33;;;;;;;;;;1935486;74;21018;-50
2024/03/30 18:33:48;;;;;;;41.40;18.20;;;;;;;;;;1935362;74;21022;-49
2024/03/30 18:36:17;;;;;;;34.80;16.07;;;;;;;;;;1935607;74;21550;-51
2024/03/30 18:38:47;;;;;;;34.83;15.90;;;;;;;;;;1935348;74;21154;-52
2024/03/30 18:41:15;;;;;;;27.27;14.03;;;;;;;;;;1935316;74;21530;-51
2024/03/30 18:43:44;;;;;;;32.73;13.38;;;;;;;;;;1935417;74;21038;-50
2024/03/30 18:46:14;;;;;;;28.15;12.55;;;;;;;;;;1935366;74;21014;-52
2024/03/30 18:48:43;;;;;;;25.02;11.88;;;;;;;;;;1935346;74;21487;-52
2024/03/30 18:51:11;;;;;;;20.92;11.65;;;;;;;;;;1935303;74;21067;-54
2024/03/30 18:53:40;;;;;;;22.87;12.30;;;;;;;;;;1935332;74;21010;-51
2024/03/30 18:56:09;;;;;;;20.20;10.48;;;;;;;;;;1935307;74;21029;-51
2024/03/30 18:58:37;;;;;;;24.23;11.20;;;;;;;;;;1935345;74;21053;-50
2024/03/30 19:01:10;;;;;;;16.87;11.05;;;;;;;;;;1935303;74;21115;-51
2024/03/30 19:03:40;;;;;;;15.75;8.25;;;;;;;;;;1935419;74;21030;-51
2024/03/30 19:06:09;;;;;;;17.57;7.67;;;;;;;;;;1935454;74;21038;-52
2024/03/30 19:08:37;;;;;;;17.57;8.50;;;;;;;;;;1935325;74;21029;-50
2024/03/30 19:11:07;;;;;;;21.20;10.75;;;;;;;;;;1935349;73;21139;-52
2024/03/30 19:13:35;;;;;;;22.80;9.43;;;;;;;;;;1935439;74;21045;-50
2024/03/30 19:16:04;;;;;;;22.55;8.60;;;;;;;;;;1935317;74;21010;-53
2024/03/30 19:18:33;;;;;;;18.98;8.18;;;;;;;;;;1935415;74;21006;-51
2024/03/30 19:21:06;;;;;;;10.05;7.47;;;;;;;;;;1935258;74;21026;-52
2024/03/30 19:23:34;;;;;;;16.00;8.58;;;;;;;;;;1926617;74;21054;-51
2024/03/30 19:26:03;;;;;;;13.58;7.95;;;;;;;;;;1918801;75;21058;-51
2024/03/30 19:28:31;;;;;;;18.82;10.55;;;;;;;;;;1918789;75;21031;-54
2024/03/30 19:31:00;;;;;;;24.15;9.73;;;;;;;;;;1918818;75;21113;-52
2024/03/30 19:33:28;;;;;;;16.50;10.10;;;;;;;;;;1918972;75;21027;-51
2024/03/30 19:35:57;;;;;;;22.10;10.13;;;;;;;;;;1918793;75;20979;-51
2024/03/30 19:38:30;;;;;;;32.88;13.78;;;;;;;;;;1918848;75;21124;-54
2024/03/30 19:41:11;;;;;;;23.95;10.03;;;;;;;;;;1918772;75;21007;-52
2024/03/30 19:43:40;;;;;;;26.50;9.63;;;;;;;;;;1918911;74;21046;-51
2024/03/30 19:46:09;;;;;;;22.60;9.73;;;;;;;;;;1918745;75;21096;-53
2024/03/30 19:48:38;;;;;;;25.90;11.90;;;;;;;;;;1918767;75;21030;-52
2024/03/30 19:51:08;;;;;;;27.13;13.75;;;;;;;;;;1918895;75;21068;-54
2024/03/30 19:53:36;;;;;;;19.45;11.80;;;;;;;;;;1918874;75;21003;-52
2024/03/30 19:56:05;;;;;;;17.42;10.38;;;;;;;;;;1918786;75;21084;-50
2024/03/30 19:58:34;;;;;;;26.52;12.28;;;;;;;;;;1918810;75;21034;-53
2024/03/30 20:01:09;;;;;;;22.55;13.43;;;;;;;;;;1918777;75;21105;-53
2024/03/30 20:03:37;;;;;;;27.32;17.42;;;;;;;;;;1918940;75;21060;-52
2024/03/30 20:06:07;;;;;;;21.62;11.05;;;;;;;;;;1918764;75;21078;-50
2024/03/30 20:08:36;;;;;;;12.70;8.00;;;;;;;;;;1918758;75;21088;-52
2024/03/30 20:11:05;;;;;;;14.75;7.15;;;;;;;;;;1918789;75;21034;-50
2024/03/30 20:13:33;;;;;;;14.50;8.23;;;;;;;;;;1918755;75;21034;-51
2024/03/30 20:16:04;;;;;;;20.90;8.33;;;;;;;;;;1918918;75;21106;-52
2024/03/30 20:18:34;;;;;;;19.85;8.00;;;;;;;;;;1918936;75;21003;-53
2024/03/30 20:21:03;;;;;;;31.30;8.95;;;;;;;;;;1918929;75;21117;-51
2024/03/30 20:23:33;;;;;;;16.65;7.83;;;;;;;;;;1923803;74;21014;-51
2024/03/30 20:26:05;;;;;;;15.55;7.60;;;;;;;;;;1935337;74;20994;-51
2024/03/30 20:28:34;;;;;;;11.68;6.50;;;;;;;;;;1935442;74;21018;-52
2024/03/30 20:31:04;;;;;;;14.00;6.15;;;;;;;;;;1935330;74;21015;-52
2024/03/30 20:33:34;;;;;;;12.93;9.10;;;;;;;;;;1935364;74;21002;-52
2024/03/30 20:36:03;;;;;;;31.57;18.65;;;;;;;;;;1935314;74;20994;-50
2024/03/30 20:38:33;;;;;;;59.95;33.92;;;;;;;;;;1935446;74;21059;-50
2024/03/30 20:41:02;;;;;;;79.05;41.58;;;;;;;;;;1935389;73;21068;-51
2024/03/30 20:43:31;;;;;;;82.30;41.08;;;;;;;;;;1935368;74;21041;-52
2024/03/30 20:46:00;;;;;;;92.62;45.92;;;;;;;;;;1935263;74;21018;-52
2024/03/30 20:48:32;;;;;;;137.57;61.48;;;;;;;;;;1935301;74;21104;-51
2024/03/30 20:51:01;;;;;;;52.20;26.48;;;;;;;;;;1935455;74;21026;-51
2024/03/30 20:53:33;;;;;;;18.00;10.18;;;;;;;;;;1935451;74;21126;-50
2024/03/30 20:56:01;;;;;;;16.97;8.50;;;;;;;;;;1935286;74;21046;-50
2024/03/30 20:58:30;;;;;;;16.60;7.92;;;;;;;;;;1935284;74;21088;-51
2024/03/30 21:01:00;;;;;;;13.90;7.60;;;;;;;;;;1935297;74;21147;-50
2024/03/30 21:03:29;;;;;;;9.88;7.22;;;;;;;;;;1935335;74;21525;-50
2024/03/30 21:06:05;;;;;;;11.33;7.08;;;;;;;;;;1935408;74;21104;-51
2024/03/30 21:08:34;;;;;;;15.18;8.03;;;;;;;;;;1934296;74;21037;-49
2024/03/30 21:11:03;;;;;;;11.73;6.37;;;;;;;;;;1935292;74;21026;-50
2024/03/30 21:13:32;;;;;;;15.25;6.15;;;;;;;;;;1935300;74;21091;-50
2024/03/30 21:16:01;;;;;;;15.43;6.97;;;;;;;;;;1935325;74;21096;-53
2024/03/30 21:18:30;;;;;;;9.95;5.87;;;;;;;;;;1935334;74;21006;-50
2024/03/30 21:21:00;;;;;;;13.10;7.28;;;;;;;;;;1935294;74;21009;-50
2024/03/30 21:23:28;;;;;;;11.63;6.58;;;;;;;;;;1933963;74;21042;-50
2024/03/30 21:26:03;;;;;;;13.15;6.83;;;;;;;;;;1918865;75;20979;-53
2024/03/30 21:28:31;;;;;;;;;;;;;;;;;;1921726;75;21019;-50
2024/03/30 21:30:59;;;;;;;18.07;6.50;;;;;;;;;;1918869;75;20436;-53
2024/03/30 21:33:27;;;;;;;10.18;7.72;;;;;;;;;;1919121;75;21014;-50
2024/03/30 21:35:56;;;;;;;15.48;8.88;;;;;;;;;;1919041;75;21082;-53
2024/03/30 21:38:25;;;;;;;22.30;10.20;;;;;;;;;;1919144;75;20979;-50
2024/03/30 21:40:53;;;;;;;18.80;9.68;;;;;;;;;;1919038;75;21085;-53
2024/03/30 21:43:22;;;;;;;22.17;10.65;;;;;;;;;;1919119;75;21015;-53
2024/03/30 21:45:55;;;;;;;27.05;13.32;;;;;;;;;;1919057;75;21030;-53
2024/03/30 21:48:24;;;;;;;19.82;11.28;;;;;;;;;;1919059;75;21481;-53
2024/03/30 21:50:54;;;;;;;26.05;11.38;;;;;;;;;;1919086;75;21026;-52
2024/03/30 21:53:23;;;;;;;24.57;10.45;;;;;;;;;;1918119;74;21090;-53
2024/03/30 21:55:52;;;;;;;16.30;9.18;;;;;;;;;;1919205;75;20998;-49
2024/03/30 21:58:21;;;;;;;20.10;9.30;;;;;;;;;;1919202;75;21093;-53
2024/03/30 22:00:49;;;;;;;19.50;8.15;;;;;;;;;;1919180;75;21093;-54
2024/03/30 22:03:18;;;;;;;12.90;7.25;;;;;;;;;;1919107;75;21027;-52
2024/03/30 22:05:47;;;;;;;17.85;8.28;;;;;;;;;;1919093;75;21119;-51